Haviland, Ohio
Current Conditions -  °F | °C
As of 4:35 PM on Wednesday 26 Nov 2014 (Local Time) from KGWB Reporting Station
Overcast Overcast  
Wind Chill: -1°   Ceiling: 2100
Heat Index: -1°   Visibility: 10mi
Dew Point: -6°   Wind: 0mph
Humidity: 69%   Direction: NA
Pressure: 30.1"   Gusts: NA
Location:  41.02°N, 84.58°W
Report Text: KGWB 262135Z AUTO 00000KT 10SM OVC021 M01/M06 A3010 RMK AO2
Loading
Personal Weather Stations






























Interactive Weather Map New forecast layout! Learn more

10-Day Weather Forecast

Advertisements
Track Severe Weather on mobile